• Join FlightAware (Why Join?)
  • Login
  • US Flag 
10:01AM EDT


 

Airport Tracker/Info


-or-


 

Live Flight TrackerFlight Track Log ✈ SKW5550 ✈ 23-Jun-2013 ✈ KCOD - KDEN

Flight Track Log - Related Links

Times and Time Zones

All times are in EDT time to prevent confusion due to time zone crossing. See the SKW5550 flight status page for this flight to view local times or setup timezone preferences in your user account.

Time Position Orientation Groundspeed Altitude Reporting Facility
EDT Latitude Longitude Course Direction KTS MPH feet Rate Location/Type
08:17AM 44.1322 -108.6736 159° South  Level FlightAware Approximate
08:18AM 44.0224 -108.6137 159° South  Level FlightAware Approximate
08:19AM 43.9131 -108.5520 157° South  Level FlightAware Approximate
08:19AM 44.4486 -108.8661 142° Southeast 290 334 14,100  Level Salt Lake Center
08:20AM 43.8044 -108.4886 157° South  Level FlightAware Approximate
08:20AM 44.3636 -108.8161 157° South 338 389 15,300  Level Salt Lake Center
08:21AM 43.6955 -108.4259 157° South  Level FlightAware Approximate
08:21AM 44.2583 -108.7536 157° South 352 405 16,500  Level Salt Lake Center
08:22AM 43.5865 -108.3636 158° South  Level FlightAware Approximate
08:22AM 44.1639 -108.6978 157° South 366 421 18,000  Level Salt Lake Center
08:23AM 43.4779 -108.3001 156° South  Level FlightAware Approximate
08:23AM 44.0667 -108.6425 158° South 378 435 19,200  Level Salt Lake Center
08:24AM 43.3815 -108.2084 142° Southeast  Level FlightAware Approximate
08:24AM 43.9686 -108.5844 157° South 388 447 20,300  Level Salt Lake Center
08:25AM 43.8467 -108.5189 159° South 410 472 21,300 1,020 Climbing Salt Lake Center
08:26AM 43.7406 -108.4581 157° South 422 486 22,400 900 Climbing Salt Lake Center
08:27AM 43.6369 -108.3986 157° South 423 487 23,200 660 Climbing Salt Lake Center
08:28AM 43.5303 -108.3392 158° South 429 494 23,800 660 Climbing Salt Lake Center
08:29AM 43.4122 -108.2472 150° Southeast 439 505 24,600 780 Climbing Salt Lake Center
08:30AM 43.3164 -108.1453 142° Southeast 452 520 25,400 660 Climbing Salt Lake Center
08:31AM 43.2194 -108.0422 142° Southeast 457 526 26,000 720 Climbing Salt Lake Center
08:32AM 43.1069 -107.9236 142° Southeast 457 526 26,900 720 Climbing Salt Lake Center
08:33AM 43.0114 -107.8242 143° Southeast 453 521 27,500 480 Climbing Salt Lake Center
08:34AM 42.9164 -107.7222 142° Southeast 453 521 27,900 420 Climbing Salt Lake Center
08:35AM 42.8194 -107.6211 143° Southeast 457 526 28,400 420 Climbing Salt Lake Center
08:36AM 42.7058 -107.5036 143° Southeast 458 527 28,800 540 Climbing Salt Lake Center
08:37AM 42.6097 -107.4039 143° Southeast 455 524 29,600 600 Climbing Salt Lake Center
08:38AM 42.5103 -107.3031 143° Southeast 454 522 30,100 540 Climbing Denver Center
08:39AM 42.3997 -107.1886 143° Southeast 450 518 30,700 420 Climbing Denver Center
08:40AM 42.3022 -107.0906 143° Southeast 451 519 31,000 120 Climbing Denver Center
08:41AM 42.2044 -106.9917 143° Southeast 457 526 31,000  Level Denver Center
08:42AM 42.0900 -106.8756 143° Southeast 460 529 31,000  Level Denver Center
08:43AM 41.9900 -106.7733 143° Southeast 467 537 31,000  Level Denver Center
08:44AM 41.8922 -106.6697 142° Southeast 468 539 31,000  Level Denver Center
08:45AM 41.7769 -106.5503 142° Southeast 468 539 31,000  Level Denver Center
08:46AM 41.6769 -106.4456 142° Southeast 471 542 31,000  Level Denver Center
08:47AM 41.5778 -106.3428 142° Southeast 471 542 31,000  Level Denver Center
08:48AM 41.4786 -106.2403 142° Southeast 472 543 31,000  Level Denver Center
08:49AM 41.3633 -106.1217 142° Southeast 471 542 31,000  Level Denver Center
08:50AM 41.2633 -106.0183 142° Southeast 474 545 31,000  Level Denver Center
08:51AM 41.1631 -105.9161 142° Southeast 476 548 31,000  Level Denver Center
08:52AM 41.0478 -105.7986 142° Southeast 471 542 31,000 -60 Level Denver Center
08:53AM 40.9442 -105.6933 142° Southeast 473 544 30,900 -1,140 Descending Denver Center
08:54AM 40.8375 -105.5861 143° Southeast 479 551 28,700 -2,220 Descending Denver Center
08:55AM 40.7369 -105.4844 143° Southeast 462 532 26,500 -1,980 Descending Denver Center
08:56AM 40.6583 -105.4039 142° Southeast 452 520 24,800 -1,980 Descending Denver Center
08:57AM 40.5442 -105.2889 143° Southeast 433 498 22,500 -2,400 Descending Denver Center
08:58AM 40.4408 -105.1914 144° Southeast 426 490 20,000 -3,180 Descending Denver Center
08:59AM 40.3994 -105.0467 111° Southeast 431 496 16,100 -3,420 Descending Denver Center
09:00AM 40.3692 -104.9047 106° East 407 468 13,200 -1,620 Descending Denver Center
09:01AM 40.3397 -104.7908 109° East 342 394 12,900 -840 Descending Denver Center
09:02AM 40.2589 -104.7419 155° Southeast 334 384 11,600 -1,620 Descending Denver Center
09:03AM 40.1614 -104.7258 173° South 327 376 9,700 -1,740 Descending Denver Center
09:04AM 40.0806 -104.7125 173° South 297 342 8,100 -1,620 Descending Denver Center